Time;durP1;ratioP1;P1;durP2;ratioP2;P2;SDS_P1;SDS_P2;PMS_P1;PMS_P2;Temp;Humidity;BMP_temperature;BMP_pressure;BME280_temperature;BME280_humidity;BME280_pressure;Samples;Min_cycle;Max_cycle;Signal;HPM_P1;HPM_P2
2023/03/06 00:00:56;;;;;;;;;34.25;30.50;;;;;9.52;55.03;100533.00;2079836;28;46325;-67
2023/03/06 00:01:57;;;;;;;;;39.60;34.40;;;;;9.51;55.04;100536.56;2080042;28;46157;-67
2023/03/06 00:02:57;;;;;;;;;41.75;36.00;;;;;9.51;54.95;100530.38;2079750;28;46181;-67
2023/03/06 00:03:58;;;;;;;;;36.75;33.50;;;;;9.52;55.12;100530.34;2084100;28;46293;-68
2023/03/06 00:04:58;;;;;;;;;35.75;33.75;;;;;9.51;55.22;100531.25;2084770;28;45052;-67
2023/03/06 00:05:59;;;;;;;;;36.50;33.75;;;;;9.51;55.22;100528.59;2086311;28;46123;-66
2023/03/06 00:06:59;;;;;;;;;43.50;36.25;;;;;9.50;55.39;100534.81;2083536;28;46459;-67
2023/03/06 00:07:59;;;;;;;;;36.75;34.25;;;;;9.49;55.12;100524.25;2087218;28;45098;-67
2023/03/06 00:09:00;;;;;;;;;38.75;35.75;;;;;9.50;55.44;100534.81;2084227;28;46511;-67
2023/03/06 00:10:00;;;;;;;;;37.00;33.00;;;;;9.49;55.12;100530.41;2092215;28;46255;-67
2023/03/06 00:11:00;;;;;;;;;44.25;34.25;;;;;9.48;55.27;100525.16;2095522;28;46313;-67
2023/03/06 00:12:01;;;;;;;;;38.75;33.50;;;;;9.49;55.22;100521.59;2084163;28;46686;-67
2023/03/06 00:13:07;;;;;;;;;42.50;37.00;;;;;9.49;55.08;100524.25;2092970;28;46315;-67
2023/03/06 00:14:07;;;;;;;;;37.80;34.40;;;;;9.49;55.22;100527.75;2093562;28;46794;-67
2023/03/06 00:15:08;;;;;;;;;41.50;35.00;;;;;9.50;55.01;100524.22;2078195;28;45302;-66
2023/03/06 00:16:09;;;;;;;;;38.60;33.80;;;;;9.50;55.20;100528.63;2087697;28;46902;-68
2023/03/06 00:17:09;;;;;;;;;39.25;33.75;;;;;9.49;55.23;100526.91;2088516;28;46647;-67
2023/03/06 00:18:09;;;;;;;;;35.25;33.25;;;;;9.48;55.19;100527.81;2079702;28;46296;-67
2023/03/06 00:19:10;;;;;;;;;40.00;35.25;;;;;9.44;55.06;100525.22;2080335;28;45885;-66
2023/03/06 00:20:11;;;;;;;;;34.00;32.75;;;;;9.43;55.17;100525.25;2083313;28;46582;-68
2023/03/06 00:21:11;;;;;;;;;37.40;32.80;;;;;9.41;55.29;100520.00;2084845;28;46955;-66
2023/03/06 00:22:13;;;;;;;;;40.50;35.00;;;;;9.41;55.29;100524.41;2079094;28;46009;-67
2023/03/06 00:23:14;;;;;;;;;40.00;33.60;;;;;9.40;55.07;100520.00;2080764;28;46735;-67
2023/03/06 00:24:15;;;;;;;;;33.00;32.25;;;;;9.37;55.20;100518.28;2085131;28;46606;-66
2023/03/06 00:25:18;;;;;;;;;36.80;32.80;;;;;9.36;55.15;100521.84;2084207;28;46311;-67
2023/03/06 00:26:18;;;;;;;;;39.00;33.60;;;;;9.36;55.29;100519.19;2081250;28;46468;-67
2023/03/06 00:27:20;;;;;;;;;34.75;33.00;;;;;9.36;55.28;100515.69;2087624;28;46381;-67
2023/03/06 00:28:20;;;;;;;;;34.40;31.60;;;;;9.35;55.36;100514.81;2082811;28;46396;-67
2023/03/06 00:29:20;;;;;;;;;35.00;32.50;;;;;9.36;55.27;100515.69;2084448;28;46628;-67
2023/03/06 00:30:23;;;;;;;;;39.75;35.25;;;;;9.37;55.18;100514.75;2085990;28;46349;-67
2023/03/06 00:31:23;;;;;;;;;36.20;30.80;;;;;9.39;55.20;100516.47;2082384;28;46430;-68
2023/03/06 00:32:25;;;;;;;;;28.50;27.00;;;;;9.38;55.20;100511.22;2086258;28;46859;-67
2023/03/06 00:33:25;;;;;;;;;34.20;32.80;;;;;9.39;55.49;100512.97;2084801;28;46284;-66
2023/03/06 00:34:25;;;;;;;;;35.00;32.25;;;;;9.38;55.29;100508.56;2076305;28;46841;-66
2023/03/06 00:35:26;;;;;;;;;35.00;33.25;;;;;9.37;55.16;100507.69;2079996;28;46230;-68
2023/03/06 00:36:26;;;;;;;;;41.00;34.75;;;;;9.37;55.35;100507.69;2083251;28;46797;-69
2023/03/06 00:37:26;;;;;;;;;36.00;30.50;;;;;9.38;55.21;100508.56;2085444;28;45632;-67
2023/03/06 00:38:30;;;;;;;;;36.25;34.00;;;;;9.37;55.32;100514.75;2087373;28;46498;-66
2023/03/06 00:39:30;;;;;;;;;36.80;34.00;;;;;9.36;55.28;100503.31;2081096;28;46478;-67
2023/03/06 00:40:31;;;;;;;;;34.50;32.75;;;;;9.35;54.95;100496.25;2086196;28;46709;-66
2023/03/06 00:41:31;;;;;;;;;35.00;32.75;;;;;9.35;54.85;100506.00;2085333;28;45952;-68
2023/03/06 00:42:31;;;;;;;;;33.75;32.25;;;;;9.33;54.74;100499.84;2082575;28;46602;-68
2023/03/06 00:43:32;;;;;;;;;36.00;33.25;;;;;9.33;55.14;100499.84;2078559;28;46883;-67
2023/03/06 00:44:32;;;;;;;;;33.50;31.00;;;;;9.33;54.97;100502.50;2074534;28;46152;-67
2023/03/06 00:45:33;;;;;;;;;36.50;33.50;;;;;9.33;54.98;100499.84;2077208;28;46642;-68
2023/03/06 00:46:33;;;;;;;;;37.50;32.25;;;;;9.33;54.86;100494.56;2079274;28;46599;-67
2023/03/06 00:47:34;;;;;;;;;36.25;33.00;;;;;9.34;54.93;100496.28;2080144;28;45915;-68
2023/03/06 00:48:34;;;;;;;;;32.75;31.25;;;;;9.34;54.87;100499.81;2078911;28;46229;-68
2023/03/06 00:49:34;;;;;;;;;32.75;30.25;;;;;9.34;54.65;100491.00;2087904;28;45567;-67
2023/03/06 00:50:35;;;;;;;;;32.00;31.75;;;;;9.35;54.63;100498.91;2085480;28;46595;-67
2023/03/06 00:51:35;;;;;;;;;28.00;26.75;;;;;9.36;54.82;100491.84;2077475;28;46411;-68
2023/03/06 00:52:35;;;;;;;;;33.50;31.75;;;;;9.37;54.63;100497.09;2078912;28;46274;-68
2023/03/06 00:53:36;;;;;;;;;41.75;34.00;;;;;9.38;54.68;100498.84;2081432;28;46345;-67
2023/03/06 00:54:36;;;;;;;;;33.25;32.25;;;;;9.39;54.49;100494.41;2078956;28;46624;-67
2023/03/06 00:55:36;;;;;;;;;33.50;32.50;;;;;9.39;54.49;100489.13;2095832;28;46728;-67
2023/03/06 00:56:37;;;;;;;;;35.25;31.50;;;;;9.39;54.66;100499.72;2095622;28;46585;-68
2023/03/06 00:57:37;;;;;;;;;39.75;34.00;;;;;9.38;54.66;100497.97;2079661;28;46230;-67
2023/03/06 00:58:37;;;;;;;;;34.50;32.50;;;;;9.37;54.50;100497.09;2079184;28;46278;-68
2023/03/06 00:59:38;;;;;;;;;32.00;30.75;;;;;9.38;54.39;100495.31;2079819;28;46212;-68
2023/03/06 01:00:38;;;;;;;;;34.50;32.00;;;;;9.38;54.62;100497.97;2080236;28;46761;-67
2023/03/06 01:01:38;;;;;;;;;29.25;28.75;;;;;9.37;54.39;100491.81;2077009;28;46183;-67
2023/03/06 01:02:39;;;;;;;;;36.25;32.75;;;;;9.38;54.37;100497.97;2080235;28;46669;-66
2023/03/06 01:03:40;;;;;;;;;33.75;32.00;;;;;9.36;54.34;100497.13;2079637;28;46813;-67
2023/03/06 01:04:40;;;;;;;;;36.25;32.25;;;;;9.33;54.23;100503.38;2077926;28;45587;-66
2023/03/06 01:05:40;;;;;;;;;34.25;30.50;;;;;9.31;54.26;100497.25;2078315;28;46261;-67
2023/03/06 01:06:41;;;;;;;;;38.75;34.25;;;;;9.30;54.32;100492.84;2078998;28;46671;-67
2023/03/06 01:07:41;;;;;;;;;35.00;31.50;;;;;9.30;54.43;100489.31;2078811;28;46116;-66
2023/03/06 01:08:41;;;;;;;;;29.25;29.00;;;;;9.29;54.47;100503.47;2079636;28;46093;-66
2023/03/06 01:09:42;;;;;;;;;30.00;26.75;;;;;9.27;54.42;100497.31;2079830;28;45995;-67
2023/03/06 01:10:42;;;;;;;;;36.50;33.00;;;;;9.27;54.52;100499.97;2079644;28;45729;-67
2023/03/06 01:11:42;;;;;;;;;35.00;31.75;;;;;9.27;54.65;100497.31;2079364;28;46804;-67
2023/03/06 01:12:44;;;;;;;;;31.75;31.00;;;;;9.26;54.55;100500.88;2076809;28;45695;-67
2023/03/06 01:13:44;;;;;;;;;37.80;35.00;;;;;9.26;54.71;100492.91;2079424;28;46969;-66
2023/03/06 01:14:44;;;;;;;;;34.75;33.50;;;;;9.27;54.76;100499.97;2079188;28;46619;-67
2023/03/06 01:15:44;;;;;;;;;38.25;34.75;;;;;9.27;54.59;100497.31;2079585;28;46646;-67
2023/03/06 01:16:45;;;;;;;;;40.50;35.75;;;;;9.28;54.79;100499.97;2080112;28;45901;-67
2023/03/06 01:17:46;;;;;;;;;37.50;32.25;;;;;9.28;54.69;100491.13;2078586;28;46363;-67
2023/03/06 01:18:46;;;;;;;;;39.50;35.00;;;;;9.30;54.65;100497.28;2078925;28;46279;-68
2023/03/06 01:19:47;;;;;;;;;39.50;35.00;;;;;9.30;54.70;100491.97;2077737;28;46917;-67
2023/03/06 01:20:47;;;;;;;;;38.00;34.25;;;;;9.31;54.77;100491.06;2086701;28;46495;-67
2023/03/06 01:21:47;;;;;;;;;38.00;33.25;;;;;9.31;54.70;100494.59;2086644;28;45928;-67
2023/03/06 01:22:48;;;;;;;;;38.50;33.00;;;;;9.31;54.70;100491.06;2077922;28;46180;-67
2023/03/06 01:23:48;;;;;;;;;36.75;33.00;;;;;9.31;54.62;100497.25;2079774;28;45729;-68
2023/03/06 01:24:48;;;;;;;;;35.25;33.75;;;;;9.31;54.85;100496.38;2079494;28;46450;-67
2023/03/06 01:25:49;;;;;;;;;37.75;33.25;;;;;9.30;54.87;100497.28;2079343;28;46569;-67
2023/03/06 01:26:52;;;;;;;;;42.75;34.00;;;;;9.29;54.63;100498.19;2079621;28;46262;-66
2023/03/06 01:27:52;;;;;;;;;35.20;31.80;;;;;9.28;54.83;100494.66;2079882;28;45661;-67
2023/03/06 01:28:53;;;;;;;;;40.25;33.75;;;;;9.29;54.83;100498.19;2079219;28;45723;-66
2023/03/06 01:29:53;;;;;;;;;38.50;31.75;;;;;9.27;54.89;100492.88;2079405;28;46571;-68
2023/03/06 01:30:54;;;;;;;;;40.50;35.75;;;;;9.26;54.71;100490.28;2079266;28;46464;-67
2023/03/06 01:31:54;;;;;;;;;37.50;34.75;;;;;9.24;54.77;100490.31;2079560;28;46171;-66
2023/03/06 01:32:54;;;;;;;;;36.75;33.75;;;;;9.23;54.77;100485.03;2079620;28;46209;-67
2023/03/06 01:33:55;;;;;;;;;37.50;33.00;;;;;9.21;54.83;100489.50;2079432;28;46078;-67
2023/03/06 01:34:55;;;;;;;;;34.50;31.25;;;;;9.21;54.75;100479.78;2079452;28;46463;-68
2023/03/06 01:35:56;;;;;;;;;41.25;31.25;;;;;9.20;54.75;100491.28;2095658;28;46385;-68
2023/03/06 01:36:56;;;;;;;;;35.25;31.25;;;;;9.18;54.75;100482.50;2095306;28;46280;-66
2023/03/06 01:37:56;;;;;;;;;37.75;34.25;;;;;9.17;54.85;100478.09;2079524;28;46287;-67
2023/03/06 01:38:56;;;;;;;;;37.25;35.00;;;;;9.18;55.08;100482.50;2079338;28;46203;-68
2023/03/06 01:39:57;;;;;;;;;34.33;32.00;;;;;9.17;55.11;100482.53;2094975;28;46513;-67
2023/03/06 01:40:57;;;;;;;;;32.50;31.25;;;;;9.18;54.96;100477.22;2095673;28;46675;-66
2023/03/06 01:41:58;;;;;;;;;25.00;25.00;;;;;9.17;54.71;100475.47;2079458;28;46287;-66
2023/03/06 01:43:07;;;;;;;;;37.00;33.00;;;;;9.17;54.99;100474.59;2078109;28;46125;-66
2023/03/06 01:44:12;;;;;;;;;37.60;31.60;;;;;9.18;54.85;100479.84;2078644;28;45614;-67
2023/03/06 01:45:12;;;;;;;;;33.00;27.40;;;;;9.17;54.71;100472.81;2079167;28;47897;-67
2023/03/06 01:46:32;;;;;;;;;37.00;31.75;;;;;9.17;54.71;100475.47;2079422;28;45321;-67
2023/03/06 01:47:32;;;;;;;;;35.40;32.80;;;;;9.15;54.70;100471.97;2073282;28;46062;-67
2023/03/06 01:48:33;;;;;;;;;33.75;33.00;;;;;9.14;54.57;100475.50;2071895;28;46954;-66
2023/03/06 01:49:38;;;;;;;;;36.20;31.20;;;;;9.12;54.50;100470.25;2076957;28;47177;-69
2023/03/06 01:50:39;;;;;;;;;36.00;32.80;;;;;9.11;54.52;100470.28;2079437;28;46928;-67
2023/03/06 01:51:46;;;;;;;;;38.25;34.50;;;;;9.11;54.60;100468.50;2079542;28;46533;-67
2023/03/06 01:52:53;;;;;;;;;39.60;35.00;;;;;9.09;54.84;100470.31;2078990;28;46632;-67
2023/03/06 01:53:56;;;;;;;;;32.60;29.80;;;;;9.08;54.55;100460.63;2079136;28;46730;-67
2023/03/06 01:55:16;;;;;;;;;32.40;28.80;;;;;9.07;54.67;100461.53;2070734;28;46853;-67
2023/03/06 01:56:17;;;;;;;;;31.80;29.00;;;;;9.06;54.43;100464.22;2078216;28;47069;-66
2023/03/06 01:57:28;;;;;;;;;30.00;29.50;;;;;9.05;54.23;100468.63;2079141;28;46505;-68
2023/03/06 01:58:29;;;;;;;;;34.20;28.20;;;;;9.04;53.99;100461.59;2079619;28;46641;-67
2023/03/06 01:59:33;;;;;;;;;29.50;27.50;;;;;9.03;54.07;100462.50;2079372;28;45250;-67
2023/03/06 02:00:34;;;;;;;;;27.60;27.00;;;;;9.01;54.02;100466.06;2079135;28;48491;-67
2023/03/06 02:01:38;;;;;;;;;30.50;29.00;;;;;8.99;54.02;100463.44;2078983;28;46686;-68
2023/03/06 02:02:42;;;;;;;;;32.20;30.20;;;;;9.00;53.97;100464.31;2072621;28;46757;-68
2023/03/06 02:03:43;;;;;;;;;31.60;28.60;;;;;8.99;54.11;100459.91;2072978;28;46173;-67
2023/03/06 02:04:45;;;;;;;;;32.50;28.50;;;;;8.99;53.88;100459.91;2079150;28;45547;-67
2023/03/06 02:05:45;;;;;;;;;30.60;27.40;;;;;8.99;53.61;100463.44;2079041;28;45854;-68
2023/03/06 02:06:46;;;;;;;;;27.25;24.75;;;;;8.98;53.59;100460.81;2079128;28;46277;-67
2023/03/06 02:07:48;;;;;;;;;29.40;24.00;;;;;8.98;53.23;100460.81;2079377;28;46537;-67
2023/03/06 02:08:51;;;;;;;;;33.20;30.00;;;;;8.96;53.34;100454.69;2079405;28;46239;-68
2023/03/06 02:09:51;;;;;;;;;25.80;24.40;;;;;8.96;53.11;100452.91;2079417;28;46375;-66
2023/03/06 02:11:04;;;;;;;;;27.25;26.50;;;;;8.96;52.63;100457.34;2072000;28;45607;-68
2023/03/06 02:12:09;;;;;;;;;26.00;23.80;;;;;8.95;52.70;100452.94;2075323;28;45679;-68
2023/03/06 02:13:09;;;;;;;;;32.80;24.60;;;;;8.96;52.80;100455.56;2079267;28;46337;-67
2023/03/06 02:14:13;;;;;;;;;25.50;24.00;;;;;8.95;52.83;100451.19;2072191;28;45905;-67
2023/03/06 02:15:16;;;;;;;;;29.00;26.80;;;;;8.96;52.77;100449.41;2074828;28;46227;-68
2023/03/06 02:16:22;;;;;;;;;29.00;25.20;;;;;8.95;52.67;100445.00;2079030;28;46267;-67
2023/03/06 02:17:23;;;;;;;;;30.40;29.20;;;;;8.95;52.85;100452.94;2079182;28;45721;-67
2023/03/06 02:18:24;;;;;;;;;29.50;27.75;;;;;8.96;52.74;100449.41;2079416;28;45668;-68
2023/03/06 02:19:52;;;;;;;;;29.20;28.20;;;;;8.95;52.62;100445.88;2079583;28;46884;-67
2023/03/06 02:21:03;;;;;;;;;25.60;23.60;;;;;8.95;52.42;100448.53;2079314;28;46760;-68
2023/03/06 02:22:03;;;;;;;;;30.20;30.00;;;;;8.95;52.55;100445.00;2079456;28;46937;-66
2023/03/06 02:23:11;;;;;;;;;29.25;25.75;;;;;8.96;52.56;100446.75;2078830;28;44979;-67
2023/03/06 02:24:23;;;;;;;;;30.00;27.00;;;;;8.95;52.40;100450.31;2079218;28;47914;-68
2023/03/06 02:25:27;;;;;;;;;28.40;25.20;;;;;8.94;52.69;100448.56;2079133;28;46791;-68
2023/03/06 02:26:28;;;;;;;;;31.80;29.00;;;;;8.93;52.70;100438.88;2078075;28;46787;-67
2023/03/06 02:27:29;;;;;;;;;29.00;26.00;;;;;8.93;52.52;100437.09;2079292;28;46331;-67
2023/03/06 02:28:30;;;;;;;;;33.80;29.60;;;;;8.93;52.59;100442.41;2085717;28;45701;-68
2023/03/06 02:29:30;;;;;;;;;26.75;25.75;;;;;8.91;52.66;100444.22;2086088;28;46880;-67
2023/03/06 02:30:31;;;;;;;;;30.00;27.00;;;;;8.88;52.53;100432.78;2078775;28;46335;-67
2023/03/06 02:31:32;;;;;;;;;32.25;31.00;;;;;8.84;52.62;100435.50;2079014;28;46849;-67
2023/03/06 02:32:33;;;;;;;;;27.60;27.00;;;;;8.81;52.61;100430.28;2079120;28;46901;-67
2023/03/06 02:33:33;;;;;;;;;29.75;27.25;;;;;8.80;52.72;100427.66;2078917;28;46447;-66
2023/03/06 02:34:36;;;;;;;;;27.50;26.75;;;;;8.80;52.73;100436.47;2077946;28;45911;-67
2023/03/06 02:35:38;;;;;;;;;25.20;23.80;;;;;8.82;52.67;100433.78;2079019;28;46482;-68
2023/03/06 02:36:44;;;;;;;;;29.60;26.60;;;;;8.81;52.73;100430.28;2070493;28;46345;-66
2023/03/06 02:37:46;;;;;;;;;31.20;25.00;;;;;8.81;52.81;100424.09;2072277;28;46712;-67
2023/03/06 02:38:49;;;;;;;;;32.20;27.60;;;;;8.79;52.64;100425.91;2080782;28;46846;-66
2023/03/06 02:40:06;;;;;;;;;31.40;30.20;;;;;8.78;52.52;100421.53;2079627;28;46422;-68
2023/03/06 02:41:07;;;;;;;;;33.00;29.60;;;;;8.77;52.57;100420.66;2080034;28;47276;-68
2023/03/06 02:42:08;;;;;;;;;30.00;29.40;;;;;8.74;52.21;100415.41;2080572;28;46349;-69
2023/03/06 02:43:11;;;;;;;;;28.75;24.75;;;;;8.71;52.39;100412.81;2080219;28;46589;-67
2023/03/06 02:44:11;;;;;;;;;27.20;23.20;;;;;8.68;52.21;100414.66;2080342;28;46131;-68
2023/03/06 02:45:16;;;;;;;;;30.00;27.75;;;;;8.64;52.55;100411.22;2079576;28;46653;-67
2023/03/06 02:46:16;;;;;;;;;30.00;26.80;;;;;8.63;52.21;100413.84;2076467;28;46713;-68
2023/03/06 02:47:17;;;;;;;;;21.50;21.00;;;;;8.62;52.35;100414.75;2079294;28;46564;-68
2023/03/06 02:48:18;;;;;;;;;30.25;28.50;;;;;8.60;52.15;100411.28;2069715;28;46249;-66
2023/03/06 02:49:18;;;;;;;;;31.40;29.60;;;;;8.58;52.31;100411.31;2071140;28;46841;-66
2023/03/06 02:50:19;;;;;;;;;25.25;24.25;;;;;8.59;52.20;100405.13;2074220;28;47135;-66
2023/03/06 02:51:19;;;;;;;;;30.25;26.75;;;;;8.58;52.39;100407.78;2071013;28;46461;-66
2023/03/06 02:52:20;;;;;;;;;26.50;26.00;;;;;8.59;52.37;100413.06;2071544;28;46526;-67
2023/03/06 02:53:20;;;;;;;;;34.00;27.75;;;;;8.58;52.17;100407.78;2070757;28;46867;-66
2023/03/06 02:54:21;;;;;;;;;29.25;27.75;;;;;8.58;52.49;100408.66;2071646;28;45574;-67
2023/03/06 02:55:21;;;;;;;;;30.75;27.50;;;;;8.59;52.55;100405.13;2071234;28;46334;-67
2023/03/06 02:56:22;;;;;;;;;31.75;29.75;;;;;8.59;52.40;100410.41;2070990;28;46312;-67
2023/03/06 02:57:22;;;;;;;;;31.50;30.00;;;;;8.60;52.82;100408.63;2071384;28;46617;-67
2023/03/06 02:58:22;;;;;;;;;36.25;33.25;;;;;8.59;52.65;100402.47;2079614;28;46332;-68
2023/03/06 02:59:23;;;;;;;;;33.50;26.50;;;;;8.58;52.68;100406.03;2079763;28;46649;-68
2023/03/06 03:00:23;;;;;;;;;36.25;28.75;;;;;8.58;52.76;100403.38;2071297;28;45551;-68
2023/03/06 03:01:24;;;;;;;;;17.50;14.25;;;;;8.57;52.70;100404.28;2082317;28;46161;-67
2023/03/06 03:02:24;;;;;;;;;26.50;26.25;;;;;8.58;52.90;100405.16;2079245;28;46247;-67
2023/03/06 03:03:24;;;;;;;;;27.75;25.75;;;;;8.61;52.68;100405.09;2071390;28;46847;-67
2023/03/06 03:04:25;;;;;;;;;24.00;23.75;;;;;8.61;52.70;100399.78;2073666;28;46993;-66
2023/03/06 03:05:25;;;;;;;;;31.25;28.25;;;;;8.62;52.83;100396.25;2071451;28;46200;-67
2023/03/06 03:06:25;;;;;;;;;27.25;25.75;;;;;8.64;52.54;100399.72;2071160;28;46898;-67
2023/03/06 03:07:26;;;;;;;;;25.25;23.25;;;;;8.64;52.66;100402.38;2071684;28;45503;-67
2023/03/06 03:08:26;;;;;;;;;30.75;28.25;;;;;8.64;52.81;100405.00;2078567;28;46298;-67
2023/03/06 03:09:27;;;;;;;;;25.50;23.25;;;;;8.64;52.76;100399.72;2077648;28;45525;-66
2023/03/06 03:10:27;;;;;;;;;31.00;28.00;;;;;8.63;52.81;100393.56;2063534;28;46552;-66
2023/03/06 03:11:28;;;;;;;;;31.00;29.75;;;;;8.63;52.57;100406.78;2069273;28;46411;-67
2023/03/06 03:12:28;;;;;;;;;31.00;29.50;;;;;8.62;52.52;100401.53;2069224;28;46636;-68
2023/03/06 03:13:28;;;;;;;;;34.00;29.75;;;;;8.60;52.58;100395.41;2064053;28;46334;-68
2023/03/06 03:14:29;;;;;;;;;25.50;25.50;;;;;8.61;52.85;100395.38;2070628;28;46597;-67
2023/03/06 03:15:29;;;;;;;;;31.50;29.25;;;;;8.60;52.79;100398.06;2071409;28;46596;-67
2023/03/06 03:16:30;;;;;;;;;27.25;27.25;;;;;8.61;52.79;100395.38;2070703;28;46692;-67
2023/03/06 03:17:30;;;;;;;;;31.00;27.50;;;;;8.61;52.79;100400.66;2079395;28;46304;-68
2023/03/06 03:18:30;;;;;;;;;28.00;26.00;;;;;8.61;52.85;100395.38;2079399;28;46310;-67
2023/03/06 03:19:31;;;;;;;;;32.75;31.00;;;;;8.61;52.77;100391.84;2071164;28;46493;-68
2023/03/06 03:20:31;;;;;;;;;33.00;30.00;;;;;8.61;52.87;100391.84;2080155;28;46790;-66
2023/03/06 03:21:32;;;;;;;;;31.25;29.25;;;;;8.62;53.11;100396.25;2080821;28;46707;-68
2023/03/06 03:22:32;;;;;;;;;33.25;28.00;;;;;8.60;52.70;100390.13;2079279;28;46434;-67
2023/03/06 03:23:32;;;;;;;;;30.50;30.50;;;;;8.60;52.67;100395.41;2080383;28;46287;-67
2023/03/06 03:24:33;;;;;;;;;24.50;23.75;;;;;8.58;52.28;100390.16;2080362;28;46300;-68
2023/03/06 03:25:33;;;;;;;;;33.00;29.50;;;;;8.57;52.74;100383.13;2096681;28;45189;-67
2023/03/06 03:26:33;;;;;;;;;26.00;23.25;;;;;8.58;52.52;100389.28;2096391;28;46329;-66
2023/03/06 03:27:34;;;;;;;;;28.75;24.75;;;;;8.58;52.57;100386.63;2080141;28;46565;-67
2023/03/06 03:28:34;;;;;;;;;32.00;29.25;;;;;8.60;52.75;100379.53;2096248;28;46489;-67
2023/03/06 03:29:34;;;;;;;;;30.25;28.75;;;;;8.59;52.74;100383.97;2096254;28;46268;-67
2023/03/06 03:30:35;;;;;;;;;29.50;25.50;;;;;8.59;52.76;100386.59;2080214;28;46530;-66
2023/03/06 03:31:35;;;;;;;;;29.00;29.00;;;;;8.60;52.63;100385.69;2080083;28;46293;-67
2023/03/06 03:32:36;;;;;;;;;32.25;29.75;;;;;8.60;52.68;100377.75;2080502;28;46781;-66
2023/03/06 03:33:37;;;;;;;;;32.75;30.00;;;;;8.61;52.75;100386.56;2080277;28;46811;-67
2023/03/06 03:34:38;;;;;;;;;29.20;29.20;;;;;8.62;52.71;100383.03;2080305;28;46699;-66
2023/03/06 03:35:38;;;;;;;;;32.25;31.50;;;;;8.61;52.59;100383.91;2096361;28;46542;-67
2023/03/06 03:36:38;;;;;;;;;32.00;29.50;;;;;8.61;52.67;100378.63;2096291;28;46858;-66
2023/03/06 03:37:39;;;;;;;;;33.25;31.25;;;;;8.59;52.67;100381.31;2079747;28;46388;-67
2023/03/06 03:38:39;;;;;;;;;31.25;30.25;;;;;8.57;52.81;100380.47;2079549;28;46380;-66
2023/03/06 03:39:40;;;;;;;;;30.25;28.75;;;;;8.58;52.90;100386.63;2075590;28;46772;-66
2023/03/06 03:40:40;;;;;;;;;29.50;27.50;;;;;8.58;52.80;100387.50;2073826;28;46405;-66
2023/03/06 03:41:41;;;;;;;;;24.75;21.75;;;;;8.57;52.97;100384.88;2078881;28;46286;-66
2023/03/06 03:42:41;;;;;;;;;30.50;30.50;;;;;8.55;52.63;100382.28;2079592;28;46265;-67
2023/03/06 03:43:42;;;;;;;;;34.00;29.25;;;;;8.54;52.80;100380.53;2084143;28;45540;-66
2023/03/06 03:44:42;;;;;;;;;35.25;30.75;;;;;8.52;53.09;100383.22;2082620;28;46639;-68
2023/03/06 03:45:43;;;;;;;;;29.25;27.00;;;;;8.52;53.10;100377.94;2080225;28;46314;-66
2023/03/06 03:46:43;;;;;;;;;34.50;33.25;;;;;8.51;53.02;100372.63;2083073;28;45793;-67
2023/03/06 03:47:43;;;;;;;;;31.00;28.50;;;;;8.49;52.92;100379.72;2083820;28;46716;-67
2023/03/06 03:48:44;;;;;;;;;32.50;32.50;;;;;8.47;53.09;100379.75;2082210;28;47373;-66
2023/03/06 03:49:44;;;;;;;;;29.50;27.25;;;;;8.45;53.08;100378.06;2093876;28;46630;-67
2023/03/06 03:50:44;;;;;;;;;32.00;30.00;;;;;8.42;53.22;100373.69;2089381;28;46251;-67
2023/03/06 03:51:45;;;;;;;;;32.00;28.00;;;;;8.41;52.98;100369.31;2095349;28;46734;-67
2023/03/06 03:52:45;;;;;;;;;36.00;32.75;;;;;8.41;53.06;100371.09;2096059;28;45655;-66
2023/03/06 03:53:46;;;;;;;;;40.25;33.25;;;;;8.40;53.22;100375.50;2095632;28;45475;-67
2023/03/06 03:54:46;;;;;;;;;29.50;24.50;;;;;8.41;53.28;100371.97;2095426;28;46790;-67
2023/03/06 03:55:47;;;;;;;;;32.75;29.25;;;;;8.42;53.06;100372.84;2096144;28;45489;-67
2023/03/06 03:56:47;;;;;;;;;34.80;32.20;;;;;8.43;53.18;100372.81;2095809;28;46574;-67
2023/03/06 03:57:48;;;;;;;;;30.00;28.50;;;;;8.43;53.30;100372.81;2095617;28;46361;-67
2023/03/06 03:58:48;;;;;;;;;35.50;30.25;;;;;8.44;53.42;100373.66;2095685;28;46540;-67
2023/03/06 03:59:48;;;;;;;;;31.50;30.00;;;;;8.44;53.46;100377.19;2095586;28;46361;-67
2023/03/06 04:00:49;;;;;;;;;31.25;28.75;;;;;8.43;53.19;100370.16;2096970;28;46591;-66
2023/03/06 04:01:49;;;;;;;;;32.00;30.50;;;;;8.43;53.53;100369.28;2090112;28;46158;-67
2023/03/06 04:02:49;;;;;;;;;35.25;30.50;;;;;8.45;53.43;100370.13;2092693;28;46004;-66
2023/03/06 04:03:50;;;;;;;;;35.00;31.25;;;;;8.44;53.54;100369.25;2095268;28;46423;-67
2023/03/06 04:04:50;;;;;;;;;34.75;31.00;;;;;8.44;53.21;100366.59;2096081;28;46217;-67
2023/03/06 04:05:53;;;;;;;;;29.00;29.00;;;;;8.44;53.64;100360.44;2095398;28;46861;-66
2023/03/06 04:06:53;;;;;;;;;23.80;21.80;;;;;8.45;53.54;100368.34;2087457;28;46438;-67
2023/03/06 04:07:54;;;;;;;;;37.75;34.00;;;;;8.46;53.60;100363.94;2094303;28;46521;-67
2023/03/06 04:08:55;;;;;;;;;33.50;27.50;;;;;8.48;53.26;100367.41;2087352;28;46962;-66
2023/03/06 04:09:55;;;;;;;;;34.60;33.00;;;;;8.49;53.34;100366.50;2087260;28;46364;-67
2023/03/06 04:10:56;;;;;;;;;39.00;34.75;;;;;8.48;53.31;100363.00;2095412;28;46419;-67
2023/03/06 04:11:57;;;;;;;;;30.50;29.00;;;;;8.48;53.44;100367.41;2087551;28;46272;-66
2023/03/06 04:12:57;;;;;;;;;32.75;27.25;;;;;8.48;53.63;100357.72;2084886;28;45927;-67
2023/03/06 04:13:58;;;;;;;;;29.00;29.00;;;;;8.48;53.64;100359.47;2095708;28;46584;-67
2023/03/06 04:14:58;;;;;;;;;40.75;33.50;;;;;8.48;53.46;100363.00;2095901;28;46039;-65
2023/03/06 04:15:59;;;;;;;;;35.25;32.75;;;;;8.49;53.64;100355.94;2095546;28;46747;-66
2023/03/06 04:16:59;;;;;;;;;39.00;32.75;;;;;8.49;53.68;100358.56;2095514;28;46461;-67
2023/03/06 04:18:00;;;;;;;;;35.75;32.75;;;;;8.50;53.47;100350.59;2096146;28;45517;-67
2023/03/06 04:19:00;;;;;;;;;31.75;29.00;;;;;8.49;53.41;100359.44;2094185;28;45288;-66
2023/03/06 04:20:01;;;;;;;;;31.25;31.25;;;;;8.49;53.41;100355.94;2094945;28;46789;-67
2023/03/06 04:21:02;;;;;;;;;33.80;32.00;;;;;8.48;53.41;100357.72;2080323;28;45543;-67
2023/03/06 04:22:02;;;;;;;;;34.75;32.75;;;;;8.47;53.75;100361.25;2081906;28;45464;-67
2023/03/06 04:23:03;;;;;;;;;29.00;29.00;;;;;8.46;53.44;100354.22;2079186;28;46078;-66
2023/03/06 04:24:04;;;;;;;;;30.50;27.75;;;;;8.47;53.61;100353.31;2080268;28;46323;-66
2023/03/06 04:25:04;;;;;;;;;40.75;30.00;;;;;8.47;53.82;100349.81;2086769;28;46899;-66
2023/03/06 04:26:05;;;;;;;;;26.50;21.75;;;;;8.48;53.62;100351.53;2087549;28;45541;-66
2023/03/06 04:27:05;;;;;;;;;32.25;31.75;;;;;8.47;53.60;100341.88;2086597;28;46545;-67
2023/03/06 04:28:06;;;;;;;;;36.50;31.75;;;;;8.45;53.70;100343.69;2087468;28;46263;-66
2023/03/06 04:29:07;;;;;;;;;30.20;28.00;;;;;8.44;53.49;100339.28;2086994;28;46806;-67
2023/03/06 04:30:08;;;;;;;;;33.00;30.75;;;;;8.42;53.84;100349.91;2087122;28;46849;-67
2023/03/06 04:31:11;;;;;;;;;32.40;27.60;;;;;8.41;53.72;100339.34;2078765;28;45695;-67
2023/03/06 04:32:11;;;;;;;;;39.20;32.80;;;;;8.41;53.88;100339.34;2086035;28;45505;-66
2023/03/06 04:33:11;;;;;;;;;28.25;27.25;;;;;8.41;53.78;100340.22;2086849;28;46867;-67
2023/03/06 04:34:12;;;;;;;;;40.00;34.25;;;;;8.40;54.04;100342.91;2087147;28;46873;-67
2023/03/06 04:35:12;;;;;;;;;35.25;31.50;;;;;8.38;53.73;100339.38;2086883;28;46572;-66
2023/03/06 04:36:27;;;;;;;;;39.00;33.50;;;;;8.38;54.08;100342.03;2087201;28;46694;-66
2023/03/06 04:37:27;;;;;;;;;33.00;28.20;;;;;8.36;54.18;100339.41;2086749;28;46424;-67
2023/03/06 04:38:28;;;;;;;;;34.00;32.75;;;;;8.38;54.04;100339.38;2087138;28;46671;-66
2023/03/06 04:39:28;;;;;;;;;31.75;31.75;;;;;8.36;53.88;100342.06;2079149;28;45471;-66
2023/03/06 04:40:31;;;;;;;;;38.50;33.00;;;;;8.36;54.00;100338.56;2078310;28;46629;-66
2023/03/06 04:41:32;;;;;;;;;33.80;31.80;;;;;8.34;54.32;100337.69;2079059;28;45761;-67
2023/03/06 04:42:33;;;;;;;;;34.60;32.00;;;;;8.33;53.77;100336.81;2087257;28;46152;-66